createdAt,value
2018-06-14T00:02:07.743Z,6.63
2018-06-14T00:04:42.457Z,8.40
2018-06-14T00:07:17.521Z,6.30
2018-06-14T00:09:52.179Z,6.93
2018-06-14T00:12:26.941Z,7.53
2018-06-14T00:15:01.706Z,5.63
2018-06-14T00:17:36.122Z,8.90
2018-06-14T00:20:10.959Z,7.43
2018-06-14T00:22:45.857Z,6.83
2018-06-14T00:25:20.672Z,6.20
2018-06-14T00:27:55.184Z,6.90
2018-06-14T00:30:29.735Z,6.33
2018-06-14T00:33:04.689Z,6.23
2018-06-14T00:35:39.691Z,9.90
2018-06-14T00:38:14.412Z,7.60
2018-06-14T00:40:49.381Z,6.70
2018-06-14T00:43:24.403Z,5.80
2018-06-14T00:45:58.599Z,6.27
2018-06-14T00:48:33.573Z,6.20
2018-06-14T00:51:07.931Z,6.60
2018-06-14T00:53:42.776Z,6.23
2018-06-14T00:56:17.748Z,6.70
2018-06-14T00:58:53.141Z,6.63
2018-06-14T01:01:27.924Z,5.87
2018-06-14T01:04:03.591Z,5.80
2018-06-14T01:06:38.358Z,6.87
2018-06-14T01:09:13.226Z,7.53
2018-06-14T01:11:47.729Z,8.43
2018-06-14T01:14:22.821Z,6.63
2018-06-14T01:16:57.348Z,7.90
2018-06-14T01:19:32.364Z,7.10
2018-06-14T01:22:06.781Z,7.00
2018-06-14T01:24:41.967Z,7.43
2018-06-14T01:27:17.708Z,6.03
2018-06-14T01:29:52.393Z,7.60
2018-06-14T01:32:27.313Z,6.83
2018-06-14T01:35:01.846Z,6.93
2018-06-14T01:37:47.873Z,6.97
2018-06-14T01:40:22.168Z,6.60
2018-06-14T01:42:56.620Z,11.93
2018-06-14T01:45:31.858Z,7.93
2018-06-14T01:48:06.328Z,8.03
2018-06-14T01:50:40.841Z,9.40
2018-06-14T01:53:16.082Z,7.00
2018-06-14T01:55:51.363Z,6.90
2018-06-14T01:58:29.009Z,6.90
2018-06-14T02:01:03.602Z,7.53
2018-06-14T02:03:38.603Z,7.50
2018-06-14T02:06:13.044Z,7.57
2018-06-14T02:08:47.961Z,7.60
2018-06-14T02:11:22.250Z,8.33
2018-06-14T02:13:57.229Z,6.47
2018-06-14T02:16:32.014Z,6.90
2018-06-14T02:19:06.707Z,6.53
2018-06-14T02:21:41.221Z,7.00
2018-06-14T02:24:16.204Z,9.70
2018-06-14T02:26:50.957Z,7.23
2018-06-14T02:29:25.985Z,6.90
2018-06-14T02:32:01.185Z,7.67
2018-06-14T02:34:35.878Z,7.60
2018-06-14T02:37:10.608Z,6.27
2018-06-14T02:39:45.400Z,9.87
2018-06-14T02:42:19.692Z,7.90
2018-06-14T02:44:54.273Z,6.13
2018-06-14T02:47:29.353Z,7.10
2018-06-14T02:50:03.568Z,8.17
2018-06-14T02:52:38.260Z,7.47
2018-06-14T02:55:13.389Z,7.20
2018-06-14T02:57:47.825Z,6.33
2018-06-14T03:00:23.277Z,6.83
2018-06-14T03:02:58.711Z,7.90
2018-06-14T03:05:33.351Z,6.80
2018-06-14T03:08:08.721Z,6.20
2018-06-14T03:10:43.641Z,7.00
2018-06-14T03:13:18.201Z,6.97
2018-06-14T03:15:53.198Z,5.90
2018-06-14T03:18:27.588Z,7.03
2018-06-14T03:21:04.022Z,7.10
2018-06-14T03:23:39.350Z,7.00
2018-06-14T03:26:14.144Z,6.07
2018-06-14T03:28:48.348Z,7.57
2018-06-14T03:31:22.928Z,7.67
2018-06-14T03:33:57.421Z,7.70
2018-06-14T03:36:31.970Z,7.07
2018-06-14T03:39:08.656Z,6.63
2018-06-14T03:41:43.429Z,8.57
2018-06-14T03:44:18.053Z,8.03
2018-06-14T03:46:52.872Z,6.40
2018-06-14T03:49:27.713Z,7.97
2018-06-14T03:52:02.907Z,11.10
2018-06-14T03:54:37.646Z,12.27
2018-06-14T03:57:12.206Z,7.27
2018-06-14T03:59:46.838Z,7.10
2018-06-14T04:02:21.901Z,8.20
2018-06-14T04:04:56.272Z,8.50
2018-06-14T04:07:31.413Z,9.60
2018-06-14T04:10:05.893Z,10.33
2018-06-14T04:12:40.839Z,9.27
2018-06-14T04:15:15.125Z,8.90
2018-06-14T04:17:54.013Z,8.97
2018-06-14T04:20:30.112Z,11.93
2018-06-14T04:23:04.873Z,9.17
2018-06-14T04:25:39.613Z,8.93
2018-06-14T04:28:14.508Z,9.37
2018-06-14T04:30:48.931Z,9.33
2018-06-14T04:33:23.733Z,8.47
2018-06-14T04:35:59.073Z,12.27
2018-06-14T04:38:34.325Z,9.77
2018-06-14T04:41:09.553Z,10.63
2018-06-14T04:43:44.148Z,11.17
2018-06-14T04:46:18.994Z,11.23
2018-06-14T04:48:53.200Z,9.83
2018-06-14T04:51:28.391Z,12.47
2018-06-14T04:54:02.890Z,9.43
2018-06-14T04:56:38.028Z,8.97
2018-06-14T04:59:12.896Z,11.40
2018-06-14T05:01:47.492Z,8.63
2018-06-14T05:04:22.937Z,9.20
2018-06-14T05:06:57.243Z,10.20
2018-06-14T05:09:32.494Z,10.23
2018-06-14T05:12:06.715Z,10.30
2018-06-14T05:14:41.356Z,10.03
2018-06-14T05:17:16.296Z,10.77
2018-06-14T05:19:51.316Z,10.27
2018-06-14T05:22:26.105Z,10.10
2018-06-14T05:25:00.909Z,9.90
2018-06-14T05:27:35.713Z,9.53
2018-06-14T05:30:10.549Z,10.03
2018-06-14T05:32:45.317Z,9.97
2018-06-14T05:35:20.213Z,11.10
2018-06-14T05:37:54.954Z,9.90
2018-06-14T05:40:29.755Z,11.63
2018-06-14T05:43:04.804Z,8.93
2018-06-14T05:45:39.368Z,15.10
2018-06-14T05:48:14.369Z,9.77
2018-06-14T05:50:55.587Z,9.80
2018-06-14T05:53:30.332Z,9.47
2018-06-14T05:56:05.474Z,10.50
2018-06-14T05:58:40.155Z,9.50
2018-06-14T06:01:14.981Z,7.90
2018-06-14T06:03:49.593Z,15.00
2018-06-14T06:06:24.456Z,10.10
2018-06-14T06:08:58.922Z,12.67
2018-06-14T06:11:34.086Z,8.03
2018-06-14T06:14:08.679Z,9.00
2018-06-14T06:16:44.193Z,7.83
2018-06-14T06:19:19.700Z,9.23
2018-06-14T06:21:54.069Z,7.60
2018-06-14T06:24:29.109Z,7.90
2018-06-14T06:27:03.765Z,7.13
2018-06-14T06:29:39.127Z,7.83
2018-06-14T06:32:14.050Z,8.20
2018-06-14T06:34:48.541Z,9.07
2018-06-14T06:37:23.472Z,8.13
2018-06-14T06:39:59.229Z,8.93
2018-06-14T06:42:34.065Z,10.30
2018-06-14T06:45:09.024Z,8.93
2018-06-14T06:47:43.445Z,10.63
2018-06-14T06:50:18.492Z,7.83
2018-06-14T06:52:53.553Z,12.60
2018-06-14T06:55:28.157Z,8.33
2018-06-14T06:58:02.440Z,7.67
2018-06-14T07:00:37.209Z,8.27
2018-06-14T07:03:12.348Z,11.00
2018-06-14T07:05:46.786Z,9.70
2018-06-14T07:08:21.665Z,10.60
2018-06-14T07:10:56.512Z,10.40
2018-06-14T07:13:31.374Z,10.27
2018-06-14T07:16:05.983Z,15.70
2018-06-14T07:18:41.367Z,12.93
2018-06-14T07:21:15.943Z,14.00
2018-06-14T07:23:51.301Z,14.37
2018-06-14T07:26:26.147Z,13.53
2018-06-14T07:29:01.145Z,13.37
2018-06-14T07:31:35.922Z,13.80
2018-06-14T07:34:10.957Z,13.20
2018-06-14T07:36:45.877Z,14.73
2018-06-14T07:39:20.709Z,14.43
2018-06-14T07:41:55.621Z,14.73
2018-06-14T07:44:30.821Z,17.53
2018-06-14T07:47:05.500Z,13.30
2018-06-14T07:49:40.403Z,16.00
2018-06-14T07:52:15.816Z,14.40
2018-06-14T07:54:50.405Z,16.77
2018-06-14T07:57:34.759Z,15.87
2018-06-14T08:00:09.787Z,16.43
2018-06-14T08:02:45.229Z,19.00
2018-06-14T08:05:19.728Z,16.77
2018-06-14T08:07:55.081Z,16.43
2018-06-14T08:10:30.273Z,16.17
2018-06-14T08:13:05.141Z,18.73
2018-06-14T08:15:40.130Z,17.30
2018-06-14T08:18:15.225Z,15.90
2018-06-14T08:20:49.737Z,17.10
2018-06-14T08:23:25.045Z,14.07
2018-06-14T08:25:59.668Z,14.50
2018-06-14T08:28:34.700Z,14.67
2018-06-14T08:31:09.625Z,14.13
2018-06-14T08:33:44.329Z,14.03
2018-06-14T08:36:19.164Z,16.80
2018-06-14T08:38:54.293Z,15.40
2018-06-14T08:41:28.816Z,12.70
2018-06-14T08:44:04.128Z,15.40
2018-06-14T08:46:39.340Z,10.03
2018-06-14T08:49:14.017Z,11.43
2018-06-14T08:51:48.985Z,11.70
2018-06-14T08:54:23.897Z,12.67
2018-06-14T08:56:58.981Z,11.07
2018-06-14T08:59:33.169Z,14.00
2018-06-14T09:02:08.209Z,16.93
2018-06-14T09:04:42.933Z,12.83
2018-06-14T09:07:18.188Z,13.93
2018-06-14T09:09:53.693Z,11.00
2018-06-14T09:12:28.480Z,9.73
2018-06-14T09:15:03.272Z,9.73
2018-06-14T09:17:37.917Z,10.60
2018-06-14T09:20:12.710Z,8.20
2018-06-14T09:22:47.221Z,8.00
2018-06-14T09:25:22.203Z,9.67
2018-06-14T09:27:56.832Z,11.87
2018-06-14T09:30:31.645Z,7.77
2018-06-14T09:33:06.329Z,9.03
2018-06-14T09:35:41.308Z,7.30
2018-06-14T09:38:16.148Z,8.83
2018-06-14T09:40:51.247Z,10.57
2018-06-14T09:43:25.878Z,8.47
2018-06-14T09:46:01.248Z,8.10
2018-06-14T09:48:35.961Z,7.50
2018-06-14T09:51:10.153Z,6.50
2018-06-14T09:53:44.716Z,7.70
2018-06-14T09:56:19.672Z,6.40
2018-06-14T09:58:53.924Z,8.23
2018-06-14T10:01:28.905Z,8.50
2018-06-14T10:04:03.657Z,8.20
2018-06-14T10:06:39.532Z,9.27
2018-06-14T10:09:14.346Z,8.33
2018-06-14T10:11:48.757Z,9.30
2018-06-14T10:14:23.651Z,8.77
2018-06-14T10:16:58.080Z,11.73
2018-06-14T10:19:33.129Z,11.37
2018-06-14T10:22:07.477Z,12.33
2018-06-14T10:24:42.613Z,9.57
2018-06-14T10:27:17.321Z,11.93
2018-06-14T10:29:51.950Z,10.63
2018-06-14T10:32:26.580Z,12.43
2018-06-14T10:35:01.495Z,11.23
2018-06-14T10:37:36.650Z,9.17
2018-06-14T10:40:11.477Z,7.40
2018-06-14T10:42:46.238Z,8.40
2018-06-14T10:45:21.536Z,8.57
2018-06-14T10:47:56.304Z,7.70
2018-06-14T10:50:31.157Z,6.87
2018-06-14T10:53:06.125Z,7.30
2018-06-14T10:55:40.616Z,7.97
2018-06-14T10:58:15.636Z,7.60
2018-06-14T11:00:51.005Z,8.10
2018-06-14T11:03:26.412Z,9.40
2018-06-14T11:06:01.100Z,6.80
2018-06-14T11:08:36.413Z,6.50
2018-06-14T11:11:11.256Z,5.50
2018-06-14T11:13:46.415Z,5.57
2018-06-14T11:16:21.350Z,5.20
2018-06-14T11:18:55.857Z,5.83
2018-06-14T11:21:30.600Z,5.37
2018-06-14T11:24:05.344Z,5.97
2018-06-14T11:26:39.809Z,5.63
2018-06-14T11:29:14.468Z,6.10
2018-06-14T11:31:49.160Z,5.63
2018-06-14T11:34:24.038Z,6.60
2018-06-14T11:36:59.045Z,6.57
2018-06-14T11:39:34.705Z,6.50
2018-06-14T11:42:10.403Z,6.80
2018-06-14T11:44:46.109Z,6.67
2018-06-14T11:47:20.456Z,5.90
2018-06-14T11:49:55.314Z,5.93
2018-06-14T11:52:29.712Z,5.90
2018-06-14T11:55:04.766Z,6.83
2018-06-14T11:57:39.375Z,6.97
2018-06-14T12:00:14.195Z,7.43
2018-06-14T12:02:48.456Z,7.60
2018-06-14T12:05:23.825Z,8.90
2018-06-14T12:07:58.476Z,9.23
2018-06-14T12:10:33.587Z,9.60
2018-06-14T12:13:08.009Z,10.83
2018-06-14T12:15:42.868Z,8.57
2018-06-14T12:18:17.692Z,10.23
2018-06-14T12:20:53.558Z,8.87
2018-06-14T12:23:28.830Z,10.43
2018-06-14T12:26:03.657Z,10.93
2018-06-14T12:28:38.356Z,10.00
2018-06-14T12:31:12.677Z,11.80
2018-06-14T12:33:47.550Z,10.23
2018-06-14T12:36:21.833Z,10.70
2018-06-14T12:38:56.641Z,12.67
2018-06-14T12:41:31.718Z,11.63
2018-06-14T12:44:07.015Z,10.77
2018-06-14T12:46:42.510Z,10.70
2018-06-14T12:49:17.076Z,11.30
2018-06-14T12:51:52.260Z,11.77
2018-06-14T12:54:26.889Z,12.13
2018-06-14T12:57:02.329Z,10.67
2018-06-14T12:59:36.628Z,11.73
2018-06-14T13:02:11.800Z,10.50
2018-06-14T13:04:46.608Z,10.30
2018-06-14T13:07:21.017Z,9.80
2018-06-14T13:09:56.065Z,9.93
2018-06-14T13:12:30.933Z,10.63
2018-06-14T13:15:05.769Z,11.00
2018-06-14T13:17:40.270Z,10.17
2018-06-14T13:20:15.464Z,11.10
2018-06-14T13:22:49.896Z,11.97
2018-06-14T13:25:24.892Z,11.17
2018-06-14T13:27:59.985Z,11.27
2018-06-14T13:30:35.042Z,10.30
2018-06-14T13:33:10.158Z,10.77
2018-06-14T13:35:44.882Z,10.40
2018-06-14T13:38:20.058Z,10.40
2018-06-14T13:40:54.521Z,9.13
2018-06-14T13:43:29.343Z,10.37
2018-06-14T13:46:04.339Z,12.37
2018-06-14T13:48:39.094Z,11.00
2018-06-14T13:51:13.985Z,10.97
2018-06-14T13:53:48.894Z,11.67
2018-06-14T13:56:24.018Z,12.87
2018-06-14T13:58:58.367Z,10.97
2018-06-14T14:01:33.382Z,10.57
2018-06-14T14:04:08.280Z,12.57
2018-06-14T14:06:42.942Z,11.53
2018-06-14T14:09:17.813Z,11.40
2018-06-14T14:11:52.930Z,12.10
2018-06-14T14:14:27.820Z,11.57
2018-06-14T14:17:03.004Z,11.63
2018-06-14T14:19:37.501Z,12.47
2018-06-14T14:22:12.389Z,10.80
2018-06-14T14:24:47.318Z,12.57
2018-06-14T14:27:21.964Z,10.73
2018-06-14T14:29:57.070Z,10.63
2018-06-14T14:32:32.333Z,11.50
2018-06-14T14:35:06.806Z,10.80
2018-06-14T14:37:41.765Z,12.53
2018-06-14T14:40:17.114Z,12.13
2018-06-14T14:42:51.357Z,11.43
2018-06-14T14:45:26.176Z,10.80
2018-06-14T14:48:01.080Z,11.50
2018-06-14T14:50:36.281Z,10.30
2018-06-14T14:53:10.792Z,11.80
2018-06-14T14:55:45.934Z,9.83
2018-06-14T14:58:20.720Z,10.33
2018-06-14T15:00:55.352Z,12.30
2018-06-14T15:03:29.785Z,10.43
2018-06-14T15:06:04.785Z,10.87
2018-06-14T15:08:39.528Z,10.77
2018-06-14T15:11:14.545Z,13.03
2018-06-14T15:13:49.466Z,10.30
2018-06-14T15:16:24.012Z,10.47
2018-06-14T15:18:58.585Z,12.17
2018-06-14T15:21:33.365Z,10.20
2018-06-14T15:24:08.538Z,9.93
2018-06-14T15:26:43.361Z,11.07
2018-06-14T15:29:18.083Z,13.03
2018-06-14T15:31:52.788Z,11.07
2018-06-14T15:34:28.092Z,12.60
2018-06-14T15:37:03.108Z,12.97
2018-06-14T15:39:37.891Z,10.67
2018-06-14T15:42:14.360Z,9.20
2018-06-14T15:44:51.665Z,10.47
2018-06-14T15:47:26.409Z,10.73
2018-06-14T15:50:01.415Z,11.40
2018-06-14T15:52:36.169Z,10.83
2018-06-14T15:55:22.386Z,11.40
2018-06-14T15:57:57.654Z,12.43
2018-06-14T16:00:32.180Z,11.43
2018-06-14T16:03:07.696Z,13.23
2018-06-14T16:05:42.197Z,13.00
2018-06-14T16:08:16.977Z,12.67
2018-06-14T16:10:52.077Z,11.93
2018-06-14T16:13:26.621Z,13.17
2018-06-14T16:16:01.344Z,15.03
2018-06-14T16:18:36.186Z,16.53
2018-06-14T16:21:11.446Z,16.90
2018-06-14T16:23:46.037Z,17.80
2018-06-14T16:26:20.838Z,17.73
2018-06-14T16:28:56.259Z,17.37
2018-06-14T16:31:31.845Z,19.50
2018-06-14T16:34:06.793Z,18.37
2018-06-14T16:36:41.518Z,17.60
2018-06-14T16:39:16.394Z,19.53
2018-06-14T16:41:51.262Z,18.70
2018-06-14T16:44:26.445Z,19.40
2018-06-14T16:47:00.965Z,18.57
2018-06-14T16:49:36.229Z,18.27
2018-06-14T16:52:11.046Z,19.50
2018-06-14T16:54:45.877Z,19.00
2018-06-14T16:57:20.588Z,18.70
2018-06-14T16:59:55.890Z,19.43
2018-06-14T17:02:30.315Z,19.13
2018-06-14T17:05:05.451Z,19.87
2018-06-14T17:07:40.544Z,20.07
2018-06-14T17:10:15.384Z,18.70
2018-06-14T17:12:49.869Z,20.13
2018-06-14T17:15:24.756Z,18.27
2018-06-14T17:17:59.133Z,19.97
2018-06-14T17:20:34.364Z,18.50
2018-06-14T17:23:09.258Z,19.50
2018-06-14T17:25:44.106Z,19.47
2018-06-14T17:28:19.036Z,18.63
2018-06-14T17:30:54.362Z,19.20
2018-06-14T17:33:28.657Z,20.13
2018-06-14T17:36:03.724Z,19.60
2018-06-14T17:38:39.397Z,20.43
2018-06-14T17:41:14.046Z,21.13
2018-06-14T17:43:48.582Z,21.20
2018-06-14T17:46:23.722Z,21.57
2018-06-14T17:48:58.274Z,21.87
2018-06-14T17:51:33.242Z,20.00
2018-06-14T17:54:08.234Z,20.97
2018-06-14T17:56:43.180Z,19.90
2018-06-14T17:59:17.906Z,21.97
2018-06-14T18:01:53.146Z,24.47
2018-06-14T18:04:28.137Z,24.67
2018-06-14T18:07:03.364Z,25.90
2018-06-14T18:09:38.195Z,22.33
2018-06-14T18:12:13.441Z,20.73
2018-06-14T18:14:48.397Z,22.20
2018-06-14T18:17:23.093Z,20.37
2018-06-14T18:19:57.594Z,22.47
2018-06-14T18:22:32.849Z,21.37
2018-06-14T18:25:07.748Z,22.50
2018-06-14T18:27:42.456Z,21.53
2018-06-14T18:30:17.665Z,21.60
2018-06-14T18:32:52.128Z,21.07
2018-06-14T18:35:27.234Z,23.33
2018-06-14T18:38:02.071Z,21.80
2018-06-14T18:40:37.089Z,22.00
2018-06-14T18:43:11.924Z,22.03
2018-06-14T18:45:46.975Z,21.37
2018-06-14T18:48:21.469Z,21.27
2018-06-14T18:50:56.905Z,22.93
2018-06-14T18:53:32.333Z,22.13
2018-06-14T18:56:07.296Z,21.70
2018-06-14T18:58:41.509Z,21.73
2018-06-14T19:01:16.681Z,21.20
2018-06-14T19:03:51.648Z,23.03
2018-06-14T19:06:26.541Z,21.13
2018-06-14T19:09:01.642Z,20.83
2018-06-14T19:11:36.324Z,22.87
2018-06-14T19:14:10.926Z,22.50
2018-06-14T19:16:46.497Z,21.20
2018-06-14T19:19:21.510Z,24.27
2018-06-14T19:21:56.025Z,18.50
2018-06-14T19:24:31.397Z,20.40
2018-06-14T19:27:06.157Z,19.63
2018-06-14T19:29:40.633Z,21.37
2018-06-14T19:32:15.641Z,19.87
2018-06-14T19:34:50.810Z,21.63
2018-06-14T19:37:25.505Z,20.60
2018-06-14T19:40:01.866Z,22.30
2018-06-14T19:42:39.042Z,22.13
2018-06-14T19:45:14.735Z,20.37
2018-06-14T19:47:49.425Z,21.97
2018-06-14T19:50:24.788Z,19.80
2018-06-14T19:52:59.597Z,19.67
2018-06-14T19:55:35.330Z,20.70
2018-06-14T19:58:10.018Z,20.83
2018-06-14T20:00:44.291Z,22.70
2018-06-14T20:03:19.326Z,22.33
2018-06-14T20:05:54.641Z,24.53
2018-06-14T20:08:29.752Z,21.63
2018-06-14T20:11:05.004Z,21.03
2018-06-14T20:13:39.975Z,23.03
2018-06-14T20:16:15.161Z,23.77
2018-06-14T20:18:50.193Z,22.57
2018-06-14T20:21:25.605Z,23.40
2018-06-14T20:24:00.485Z,22.47
2018-06-14T20:26:35.862Z,24.03
2018-06-14T20:29:10.650Z,23.03
2018-06-14T20:31:45.613Z,24.33
2018-06-14T20:34:20.409Z,22.50
2018-06-14T20:36:54.824Z,24.63
2018-06-14T20:39:29.240Z,23.57
2018-06-14T20:42:04.293Z,25.10
2018-06-14T20:44:39.337Z,24.53
2018-06-14T20:47:14.180Z,24.10
2018-06-14T20:49:49.123Z,23.60
2018-06-14T20:52:23.865Z,22.73
2018-06-14T20:54:59.061Z,23.13
2018-06-14T20:57:33.894Z,24.77
2018-06-14T21:00:08.820Z,26.13
2018-06-14T21:02:43.821Z,23.33
2018-06-14T21:05:19.001Z,24.20
2018-06-14T21:07:53.790Z,26.13
2018-06-14T21:10:29.224Z,26.43
2018-06-14T21:13:04.120Z,25.47
2018-06-14T21:15:39.524Z,23.40
2018-06-14T21:18:14.177Z,25.20
2018-06-14T21:20:49.456Z,25.47
2018-06-14T21:23:24.552Z,25.53
2018-06-14T21:25:59.361Z,23.03
2018-06-14T21:28:34.212Z,24.13
2018-06-14T21:31:09.525Z,26.20
2018-06-14T21:33:44.178Z,26.60
2018-06-14T21:36:19.289Z,24.53
2018-06-14T21:38:54.453Z,25.13
2018-06-14T21:41:29.465Z,26.17
2018-06-14T21:44:04.225Z,25.90
2018-06-14T21:46:39.350Z,27.23
2018-06-14T21:49:15.821Z,26.47
2018-06-14T21:51:50.619Z,26.27
2018-06-14T21:54:25.128Z,27.57
2018-06-14T21:56:59.517Z,27.53
2018-06-14T21:59:34.641Z,25.23
2018-06-14T22:02:09.669Z,28.50
2018-06-14T22:04:44.293Z,26.60
2018-06-14T22:07:19.829Z,27.70
2018-06-14T22:09:54.933Z,28.67
2018-06-14T22:12:29.253Z,30.80
2018-06-14T22:15:04.157Z,26.27
2018-06-14T22:17:39.373Z,31.93
2018-06-14T22:20:14.416Z,30.33
2018-06-14T22:22:49.288Z,28.93
2018-06-14T22:25:24.677Z,28.20
2018-06-14T22:27:59.276Z,32.97
2018-06-14T22:30:34.029Z,32.40
2018-06-14T22:33:20.230Z,32.13
2018-06-14T22:35:54.967Z,34.60
2018-06-14T22:38:29.807Z,32.17
2018-06-14T22:41:05.048Z,33.10
2018-06-14T22:43:40.043Z,36.27
2018-06-14T22:46:14.936Z,39.40
2018-06-14T22:48:49.605Z,40.20
2018-06-14T22:51:29.632Z,38.43
2018-06-14T22:54:05.084Z,36.83
2018-06-14T22:56:39.384Z,37.00
2018-06-14T22:59:14.305Z,34.73
2018-06-14T23:01:51.121Z,34.60
2018-06-14T23:04:27.810Z,36.10
2018-06-14T23:07:02.553Z,36.93
2018-06-14T23:10:15.053Z,40.70
2018-06-14T23:12:49.638Z,40.33
2018-06-14T23:15:24.488Z,39.97
2018-06-14T23:17:59.469Z,34.33
2018-06-14T23:20:35.808Z,40.87
2018-06-14T23:23:11.497Z,37.93
2018-06-14T23:25:46.645Z,37.47
2018-06-14T23:28:22.260Z,39.90
2018-06-14T23:30:56.700Z,35.13
2018-06-14T23:33:31.822Z,40.50
2018-06-14T23:36:06.821Z,38.00
2018-06-14T23:38:42.009Z,37.40
2018-06-14T23:41:17.067Z,41.60
2018-06-14T23:43:52.002Z,40.53
2018-06-14T23:46:26.246Z,42.33
2018-06-14T23:49:01.659Z,37.57
2018-06-14T23:51:37.129Z,41.27
2018-06-14T23:54:11.936Z,44.77
2018-06-14T23:56:46.845Z,40.10
2018-06-14T23:59:21.964Z,42.83
